createdAt,value
2018-02-12T00:01:33.443Z,93.10
2018-02-12T00:03:59.877Z,93.00
2018-02-12T00:06:26.294Z,93.10
2018-02-12T00:08:52.773Z,93.10
2018-02-12T00:11:19.379Z,93.20
2018-02-12T00:13:45.864Z,93.20
2018-02-12T00:16:12.274Z,93.30
2018-02-12T00:18:38.783Z,93.60
2018-02-12T00:21:06.033Z,93.20
2018-02-12T00:23:32.447Z,93.20
2018-02-12T00:25:58.846Z,93.10
2018-02-12T00:28:25.308Z,93.10
2018-02-12T00:30:51.751Z,93.10
2018-02-12T00:33:21.260Z,93.00
2018-02-12T00:35:47.668Z,93.00
2018-02-12T00:38:14.840Z,93.00
2018-02-12T00:40:42.007Z,92.90
2018-02-12T00:43:09.227Z,92.90
2018-02-12T00:45:36.387Z,93.30
2018-02-12T00:48:02.811Z,93.00
2018-02-12T00:50:29.978Z,93.10
2018-02-12T00:52:57.128Z,93.10
2018-02-12T00:55:23.536Z,93.10
2018-02-12T00:57:49.952Z,93.10
2018-02-12T01:00:16.400Z,93.10
2018-02-12T01:02:42.823Z,93.20
2018-02-12T01:05:09.219Z,93.00
2018-02-12T01:07:35.609Z,92.80
2018-02-12T01:10:02.047Z,92.60
2018-02-12T01:12:29.192Z,92.40
2018-02-12T01:14:55.578Z,92.40
2018-02-12T01:17:22.720Z,92.50
2018-02-12T01:19:49.098Z,92.50
2018-02-12T01:22:16.260Z,92.70
2018-02-12T01:24:43.411Z,93.20
2018-02-12T01:27:09.859Z,92.90
2018-02-12T01:29:36.340Z,93.10
2018-02-12T01:32:02.792Z,93.10
2018-02-12T01:34:29.209Z,93.00
2018-02-12T01:36:55.596Z,93.10
2018-02-12T01:39:22.017Z,93.20
2018-02-12T01:41:48.423Z,93.20
2018-02-12T01:44:15.600Z,93.00
2018-02-12T01:46:42.789Z,92.70
2018-02-12T01:49:09.211Z,92.70
2018-02-12T01:51:35.605Z,92.60
2018-02-12T01:54:01.999Z,92.60
2018-02-12T01:56:28.397Z,92.50
2018-02-12T01:58:55.538Z,92.20
2018-02-12T02:01:21.966Z,92.20
2018-02-12T02:03:48.383Z,92.00
2018-02-12T02:06:14.797Z,92.20
2018-02-12T02:08:41.194Z,91.80
2018-02-12T02:11:08.387Z,91.70
2018-02-12T02:13:34.801Z,91.60
2018-02-12T02:16:01.941Z,91.60
2018-02-12T02:18:28.416Z,91.60
2018-02-12T02:20:54.984Z,91.70
2018-02-12T02:23:21.414Z,91.60
2018-02-12T02:25:47.857Z,91.60
2018-02-12T02:28:14.260Z,91.70
2018-02-12T02:30:40.680Z,91.70
2018-02-12T02:33:07.829Z,91.40
2018-02-12T02:35:34.249Z,91.40
2018-02-12T02:38:01.409Z,91.40
2018-02-12T02:40:28.577Z,91.40
2018-02-12T02:42:54.967Z,91.40
2018-02-12T02:45:21.375Z,91.40
2018-02-12T02:47:47.764Z,91.50
2018-02-12T02:50:14.933Z,91.50
2018-02-12T02:52:42.090Z,91.60
2018-02-12T02:55:08.501Z,91.50
2018-02-12T02:57:34.927Z,91.60
2018-02-12T03:00:01.351Z,91.50
2018-02-12T03:02:27.728Z,91.50
2018-02-12T03:04:54.887Z,91.60
2018-02-12T03:07:22.048Z,91.70
2018-02-12T03:09:48.548Z,91.60
2018-02-12T03:12:14.977Z,91.40
2018-02-12T03:14:42.121Z,91.20
2018-02-12T03:17:08.505Z,91.20
2018-02-12T03:19:35.696Z,90.70
2018-02-12T03:22:02.121Z,90.70
2018-02-12T03:24:28.508Z,90.60
2018-02-12T03:26:54.902Z,90.50
2018-02-12T03:29:21.310Z,90.40
2018-02-12T03:31:47.760Z,90.40
2018-02-12T03:34:14.941Z,90.30
2018-02-12T03:36:41.368Z,90.30
2018-02-12T03:39:07.813Z,90.30
2018-02-12T03:41:34.253Z,90.60
2018-02-12T03:44:00.701Z,90.70
2018-02-12T03:46:27.187Z,90.50
2018-02-12T03:48:53.608Z,90.50
2018-02-12T03:51:20.014Z,90.60
2018-02-12T03:53:47.194Z,89.80
2018-02-12T03:56:14.375Z,90.40
2018-02-12T03:58:44.333Z,90.00
2018-02-12T04:01:10.719Z,89.70
2018-02-12T04:03:37.146Z,89.90
2018-02-12T04:06:03.551Z,90.00
2018-02-12T04:08:29.984Z,89.90
2018-02-12T04:10:56.462Z,90.00
2018-02-12T04:13:22.966Z,90.10
2018-02-12T04:15:49.396Z,90.40
2018-02-12T04:18:16.570Z,90.20
2018-02-12T04:20:43.723Z,90.10
2018-02-12T04:23:10.123Z,90.10
2018-02-12T04:25:36.522Z,90.00
2018-02-12T04:28:02.942Z,90.00
2018-02-12T04:30:29.365Z,90.00
2018-02-12T04:32:55.762Z,90.10
2018-02-12T04:35:22.198Z,90.10
2018-02-12T04:37:48.620Z,90.10
2018-02-12T04:40:15.786Z,90.00
2018-02-12T04:42:43.000Z,90.00
2018-02-12T04:45:09.437Z,90.00
2018-02-12T04:47:35.858Z,90.00
2018-02-12T04:50:02.346Z,90.20
2018-02-12T04:52:28.768Z,90.20
2018-02-12T04:54:55.188Z,90.20
2018-02-12T04:57:21.602Z,90.20
2018-02-12T04:59:48.783Z,90.00
2018-02-12T05:02:15.928Z,90.10
2018-02-12T05:04:42.354Z,90.10
2018-02-12T05:07:08.752Z,90.10
2018-02-12T05:09:35.897Z,90.10
2018-02-12T05:12:02.362Z,90.00
2018-02-12T05:14:28.884Z,90.00
2018-02-12T05:16:55.294Z,90.00
2018-02-12T05:19:22.454Z,90.00
2018-02-12T05:21:48.900Z,90.00
2018-02-12T05:24:15.473Z,90.10
2018-02-12T05:26:41.898Z,90.30
2018-02-12T05:29:08.295Z,90.60
2018-02-12T05:31:35.456Z,91.10
2018-02-12T05:34:01.872Z,91.10
2018-02-12T05:36:28.264Z,91.10
2018-02-12T05:38:54.680Z,91.20
2018-02-12T05:41:21.858Z,91.60
2018-02-12T05:43:48.273Z,91.20
2018-02-12T05:46:14.689Z,91.40
2018-02-12T05:48:41.091Z,91.40
2018-02-12T05:51:07.483Z,91.40
2018-02-12T05:53:33.863Z,91.40
2018-02-12T05:56:01.020Z,91.60
2018-02-12T05:58:27.484Z,91.50
2018-02-12T06:00:53.874Z,91.40
2018-02-12T06:03:20.275Z,91.60
2018-02-12T06:05:46.674Z,91.60
2018-02-12T06:08:13.822Z,91.70
2018-02-12T06:10:40.235Z,91.70
2018-02-12T06:13:06.699Z,91.60
2018-02-12T06:15:33.114Z,91.60
2018-02-12T06:18:00.255Z,91.60
2018-02-12T06:20:26.654Z,91.60
2018-02-12T06:22:53.050Z,91.50
2018-02-12T06:25:20.236Z,91.30
2018-02-12T06:27:46.653Z,91.30
2018-02-12T06:30:13.158Z,91.10
2018-02-12T06:32:39.561Z,91.10
2018-02-12T06:35:06.084Z,91.10
2018-02-12T06:37:32.550Z,91.20
2018-02-12T06:39:59.739Z,91.30
2018-02-12T06:42:26.211Z,91.30
2018-02-12T06:44:52.624Z,91.30
2018-02-12T06:47:19.824Z,91.60
2018-02-12T06:49:46.308Z,91.20
2018-02-12T06:52:12.752Z,91.20
2018-02-12T06:54:39.153Z,91.20
2018-02-12T06:57:05.549Z,91.10
2018-02-12T06:59:31.979Z,91.00
2018-02-12T07:01:59.132Z,90.80
2018-02-12T07:04:25.554Z,90.80
2018-02-12T07:06:51.958Z,90.80
2018-02-12T07:09:19.156Z,90.80
2018-02-12T07:11:45.580Z,90.80
2018-02-12T07:14:11.993Z,90.50
2018-02-12T07:16:38.464Z,90.30
2018-02-12T07:19:04.954Z,90.10
2018-02-12T07:21:32.197Z,89.40
2018-02-12T07:23:58.642Z,89.40
2018-02-12T07:26:25.180Z,89.20
2018-02-12T07:28:51.592Z,89.40
2018-02-12T07:31:18.102Z,89.30
2018-02-12T07:33:44.550Z,88.50
2018-02-12T07:36:10.956Z,87.90
2018-02-12T07:38:37.402Z,87.60
2018-02-12T07:41:03.870Z,87.00
2018-02-12T07:43:30.405Z,86.30
2018-02-12T07:45:56.893Z,86.40
2018-02-12T07:48:24.028Z,85.50
2018-02-12T07:50:50.650Z,85.50
2018-02-12T07:53:17.114Z,85.80
2018-02-12T07:55:43.572Z,85.60
2018-02-12T07:58:10.055Z,85.30
2018-02-12T08:00:36.664Z,85.30
2018-02-12T08:03:03.131Z,85.30
2018-02-12T08:05:29.547Z,85.10
2018-02-12T08:07:55.953Z,85.50
2018-02-12T08:10:22.370Z,85.60
2018-02-12T08:12:48.762Z,85.50
2018-02-12T08:15:15.155Z,85.30
2018-02-12T08:17:41.564Z,85.00
2018-02-12T08:20:08.055Z,84.90
2018-02-12T08:22:34.722Z,84.90
2018-02-12T08:25:01.178Z,84.80
2018-02-12T08:27:27.580Z,84.80
2018-02-12T08:29:54.719Z,85.50
2018-02-12T08:32:21.134Z,84.90
2018-02-12T08:34:47.544Z,85.10
2018-02-12T08:37:14.691Z,86.00
2018-02-12T08:39:41.881Z,85.00
2018-02-12T08:42:08.387Z,85.30
2018-02-12T08:44:34.821Z,85.10
2018-02-12T08:47:01.993Z,85.90
2018-02-12T08:49:29.177Z,86.40
2018-02-12T08:51:55.578Z,86.20
2018-02-12T08:54:21.984Z,86.00
2018-02-12T08:56:48.421Z,85.80
2018-02-12T08:59:15.678Z,86.70
2018-02-12T09:01:42.115Z,86.70
2018-02-12T09:04:08.565Z,87.30
2018-02-12T09:06:34.993Z,87.50
2018-02-12T09:09:01.449Z,87.60
2018-02-12T09:11:27.869Z,88.00
2018-02-12T09:13:54.280Z,88.90
2018-02-12T09:16:20.725Z,89.10
2018-02-12T09:18:47.227Z,89.10
2018-02-12T09:21:13.679Z,89.40
2018-02-12T09:23:40.121Z,90.10
2018-02-12T09:26:06.643Z,90.30
2018-02-12T09:28:33.059Z,90.50
2018-02-12T09:30:59.498Z,90.50
2018-02-12T09:33:25.933Z,90.30
2018-02-12T09:35:52.362Z,90.10
2018-02-12T09:38:18.774Z,90.10
2018-02-12T09:40:45.226Z,90.40
2018-02-12T09:43:11.597Z,90.80
2018-02-12T09:45:38.065Z,91.30
2018-02-12T09:48:05.219Z,92.30
2018-02-12T09:50:31.607Z,92.30
2018-02-12T09:52:58.060Z,92.60
2018-02-12T09:55:25.259Z,92.90
2018-02-12T09:57:51.666Z,92.90
2018-02-12T10:00:19.460Z,93.50
2018-02-12T10:02:46.636Z,93.40
2018-02-12T10:05:13.789Z,93.00
2018-02-12T10:07:40.982Z,92.80
2018-02-12T10:10:07.459Z,92.70
2018-02-12T10:12:33.887Z,92.50
2018-02-12T10:15:01.085Z,91.90
2018-02-12T10:17:27.536Z,91.80
2018-02-12T10:19:53.984Z,91.50
2018-02-12T10:22:21.164Z,91.10
2018-02-12T10:24:47.562Z,91.10
2018-02-12T10:27:13.984Z,90.30
2018-02-12T10:29:40.427Z,88.60
2018-02-12T10:32:06.850Z,85.90
2018-02-12T10:34:33.273Z,84.20
2018-02-12T10:36:59.788Z,82.40
2018-02-12T10:39:27.000Z,80.20
2018-02-12T10:41:55.599Z,80.10
2018-02-12T10:44:22.023Z,79.20
2018-02-12T10:46:49.295Z,78.70
2018-02-12T10:49:15.730Z,78.70
2018-02-12T10:51:42.976Z,77.80
2018-02-12T10:54:09.394Z,77.80
2018-02-12T10:56:35.823Z,77.50
2018-02-12T10:59:03.020Z,77.60
2018-02-12T11:01:29.566Z,77.60
2018-02-12T11:03:55.968Z,77.50
2018-02-12T11:06:22.377Z,77.80
2018-02-12T11:08:48.888Z,77.90
2018-02-12T11:11:15.306Z,78.30
2018-02-12T11:13:41.740Z,78.20
2018-02-12T11:16:08.886Z,78.80
2018-02-12T11:18:35.278Z,78.70
2018-02-12T11:21:01.713Z,78.70
2018-02-12T11:23:28.842Z,79.10
2018-02-12T11:25:55.234Z,78.80
2018-02-12T11:28:21.690Z,78.60
2018-02-12T11:30:48.092Z,78.00
2018-02-12T11:33:14.492Z,77.90
2018-02-12T11:35:40.912Z,76.60
2018-02-12T11:38:07.355Z,76.10
2018-02-12T11:40:33.743Z,76.00
2018-02-12T11:43:00.143Z,75.80
2018-02-12T11:45:27.355Z,77.00
2018-02-12T11:47:53.818Z,77.00
2018-02-12T11:50:20.367Z,76.20
2018-02-12T11:52:46.846Z,76.50
2018-02-12T11:55:13.252Z,76.70
2018-02-12T11:57:39.737Z,77.00
2018-02-12T12:00:06.221Z,77.20
2018-02-12T12:02:33.108Z,76.90
2018-02-12T12:05:00.321Z,77.80
2018-02-12T12:07:26.940Z,77.70
2018-02-12T12:09:54.350Z,77.50
2018-02-12T12:12:20.871Z,77.40
2018-02-12T12:14:47.308Z,77.40
2018-02-12T12:17:13.743Z,77.40
2018-02-12T12:19:40.240Z,77.80
2018-02-12T12:22:06.691Z,78.30
2018-02-12T12:24:33.163Z,78.90
2018-02-12T12:27:00.299Z,80.30
2018-02-12T12:29:26.721Z,80.30
2018-02-12T12:31:53.496Z,81.10
2018-02-12T12:34:19.963Z,80.70
2018-02-12T12:36:46.376Z,80.80
2018-02-12T12:39:13.080Z,80.20
2018-02-12T12:41:39.541Z,79.70
2018-02-12T12:44:05.981Z,80.50
2018-02-12T12:46:32.411Z,80.80
2018-02-12T12:48:58.853Z,82.10
2018-02-12T12:51:26.040Z,82.70
2018-02-12T12:53:52.496Z,82.70
2018-02-12T12:56:19.020Z,81.80
2018-02-12T12:58:45.992Z,81.70
2018-02-12T13:01:12.428Z,81.60
2018-02-12T13:03:38.850Z,80.70
2018-02-12T13:06:05.289Z,79.20
2018-02-12T13:08:31.705Z,78.20
2018-02-12T13:10:58.191Z,78.40
2018-02-12T13:13:25.380Z,78.20
2018-02-12T13:15:51.922Z,78.20
2018-02-12T13:18:18.358Z,78.00
2018-02-12T13:20:44.796Z,79.10
2018-02-12T13:23:11.275Z,78.30
2018-02-12T13:25:38.555Z,80.20
2018-02-12T13:28:05.699Z,81.00
2018-02-12T13:30:32.125Z,80.90
2018-02-12T13:32:58.526Z,81.00
2018-02-12T13:35:24.996Z,80.00
2018-02-12T13:37:52.191Z,79.60
2018-02-12T13:40:18.605Z,79.60
2018-02-12T13:42:45.034Z,79.40
2018-02-12T13:45:11.474Z,80.10
2018-02-12T13:47:37.983Z,80.10
2018-02-12T13:50:04.489Z,80.20
2018-02-12T13:52:30.899Z,81.30
2018-02-12T13:54:58.038Z,82.50
2018-02-12T13:57:24.450Z,82.50
2018-02-12T13:59:51.711Z,82.50
2018-02-12T14:02:18.888Z,83.40
2018-02-12T14:04:45.310Z,83.40
2018-02-12T14:07:12.351Z,83.40
2018-02-12T14:09:38.843Z,83.80
2018-02-12T14:12:06.232Z,83.70
2018-02-12T14:14:34.329Z,84.00
2018-02-12T14:17:03.686Z,84.60
2018-02-12T14:19:30.123Z,83.80
2018-02-12T14:21:56.512Z,83.90
2018-02-12T14:24:23.033Z,84.10
2018-02-12T14:26:51.446Z,85.10
2018-02-12T14:29:17.875Z,86.10
2018-02-12T14:31:45.052Z,88.30
2018-02-12T14:34:12.225Z,88.60
2018-02-12T14:36:39.413Z,90.00
2018-02-12T14:39:05.837Z,89.80
2018-02-12T14:41:33.133Z,90.60
2018-02-12T14:44:00.305Z,91.20
2018-02-12T14:46:26.862Z,91.10
2018-02-12T14:48:53.299Z,91.50
2018-02-12T14:51:19.777Z,91.40
2018-02-12T14:53:47.047Z,92.00
2018-02-12T14:56:14.194Z,92.20
2018-02-12T14:58:40.661Z,92.30
2018-02-12T15:01:07.160Z,92.50
2018-02-12T15:03:33.561Z,92.80
2018-02-12T15:06:00.007Z,93.00
2018-02-12T15:08:26.536Z,93.10
2018-02-12T15:10:54.977Z,93.20
2018-02-12T15:13:21.439Z,93.20
2018-02-12T15:15:47.969Z,93.30
2018-02-12T15:18:14.451Z,93.60
2018-02-12T15:20:40.887Z,93.30
2018-02-12T15:23:07.408Z,93.50
2018-02-12T15:25:33.851Z,93.00
2018-02-12T15:28:00.632Z,92.60
2018-02-12T15:30:27.093Z,92.20
2018-02-12T15:32:53.553Z,92.00
2018-02-12T15:35:20.095Z,91.40
2018-02-12T15:37:46.655Z,91.20
2018-02-12T15:40:13.137Z,91.20
2018-02-12T15:42:39.670Z,91.30
2018-02-12T15:45:06.325Z,91.20
2018-02-12T15:47:32.738Z,91.10
2018-02-12T15:49:59.150Z,91.20
2018-02-12T15:52:25.616Z,91.20
2018-02-12T15:54:52.162Z,91.30
2018-02-12T15:57:18.629Z,91.50
2018-02-12T15:59:45.053Z,91.60
2018-02-12T16:02:11.504Z,91.80
2018-02-12T16:04:38.871Z,91.60
2018-02-12T16:07:06.060Z,91.80
2018-02-12T16:09:32.495Z,91.80
2018-02-12T16:11:59.675Z,92.50
2018-02-12T16:14:27.046Z,92.40
2018-02-12T16:16:54.278Z,92.60
2018-02-12T16:19:20.791Z,92.60
2018-02-12T16:21:47.952Z,92.70
2018-02-12T16:24:15.211Z,92.80
2018-02-12T16:26:41.647Z,92.70
2018-02-12T16:29:08.099Z,92.90
2018-02-12T16:31:34.528Z,92.70
2018-02-12T16:34:01.078Z,92.40
2018-02-12T16:36:27.555Z,92.50
2018-02-12T16:38:53.988Z,92.50
2018-02-12T16:41:20.412Z,92.50
2018-02-12T16:43:47.582Z,92.80
2018-02-12T16:46:13.999Z,92.40
2018-02-12T16:48:40.463Z,92.40
2018-02-12T16:51:06.918Z,92.50
2018-02-12T16:53:33.330Z,92.70
2018-02-12T16:56:00.504Z,92.80
2018-02-12T16:58:26.942Z,92.80
2018-02-12T17:00:54.208Z,92.90
2018-02-12T17:03:20.660Z,92.90
2018-02-12T17:05:47.138Z,93.00
2018-02-12T17:08:14.326Z,93.20
2018-02-12T17:10:40.773Z,93.20
2018-02-12T17:13:07.248Z,93.30
2018-02-12T17:15:33.684Z,93.30
2018-02-12T17:18:00.877Z,93.40
2018-02-12T17:20:27.326Z,93.40
2018-02-12T17:22:53.752Z,93.30
2018-02-12T17:25:20.947Z,93.40
2018-02-12T17:27:47.377Z,93.30
2018-02-12T17:30:13.795Z,93.50
2018-02-12T17:32:40.233Z,93.40
2018-02-12T17:35:06.672Z,93.40
2018-02-12T17:37:33.153Z,93.30
2018-02-12T17:39:59.614Z,93.30
2018-02-12T17:42:26.058Z,93.30
2018-02-12T17:44:52.538Z,93.30
2018-02-12T17:47:18.996Z,93.20
2018-02-12T17:49:45.435Z,93.50
2018-02-12T17:52:11.915Z,93.60
2018-02-12T17:54:38.360Z,93.30
2018-02-12T17:57:04.765Z,93.30
2018-02-12T17:59:31.932Z,93.40
2018-02-12T18:01:59.116Z,93.50
2018-02-12T18:04:25.551Z,93.50
2018-02-12T18:06:51.938Z,93.30
2018-02-12T18:09:18.428Z,93.30
2018-02-12T18:11:44.863Z,93.10
2018-02-12T18:14:11.299Z,93.10
2018-02-12T18:16:37.889Z,93.60
2018-02-12T18:19:04.375Z,93.00
2018-02-12T18:21:30.819Z,93.00
2018-02-12T18:23:57.360Z,93.00
2018-02-12T18:26:23.805Z,92.80
2018-02-12T18:28:50.307Z,92.60
2018-02-12T18:31:16.882Z,92.50
2018-02-12T18:33:43.393Z,92.20
2018-02-12T18:36:09.910Z,92.40
2018-02-12T18:38:36.374Z,93.00
2018-02-12T18:41:03.176Z,93.30
2018-02-12T18:43:29.671Z,93.60
2018-02-12T18:45:56.956Z,94.20
2018-02-12T18:48:24.162Z,94.20
2018-02-12T18:50:50.607Z,94.20
2018-02-12T18:53:17.126Z,94.10
2018-02-12T18:55:43.622Z,94.20
2018-02-12T18:58:10.086Z,94.20
2018-02-12T19:00:36.586Z,94.30
2018-02-12T19:03:03.039Z,94.70
2018-02-12T19:05:30.216Z,94.60
2018-02-12T19:07:56.625Z,94.60
2018-02-12T19:10:23.054Z,94.60
2018-02-12T19:12:50.226Z,94.50
2018-02-12T19:15:17.363Z,94.60
2018-02-12T19:17:43.805Z,94.50
2018-02-12T19:20:10.310Z,94.40
2018-02-12T19:22:38.457Z,94.60
2018-02-12T19:25:04.908Z,94.60
2018-02-12T19:27:31.408Z,94.60
2018-02-12T19:29:58.554Z,94.60
2018-02-12T19:32:25.001Z,94.60
2018-02-12T19:34:52.258Z,94.60
2018-02-12T19:37:18.775Z,94.60
2018-02-12T19:39:45.947Z,94.50
2018-02-12T19:42:13.137Z,94.50
2018-02-12T19:44:39.597Z,94.50
2018-02-12T19:47:06.023Z,94.40
2018-02-12T19:49:33.201Z,94.30
2018-02-12T19:52:00.404Z,94.30
2018-02-12T19:54:26.830Z,94.30
2018-02-12T19:56:54.053Z,93.90
2018-02-12T19:59:20.531Z,93.90
2018-02-12T20:01:46.987Z,93.90
2018-02-12T20:04:17.008Z,94.10
2018-02-12T20:06:44.253Z,94.10
2018-02-12T20:09:10.716Z,94.10
2018-02-12T20:11:37.156Z,94.00
2018-02-12T20:14:03.586Z,93.80
2018-02-12T20:16:30.006Z,93.70
2018-02-12T20:18:56.445Z,93.40
2018-02-12T20:21:22.882Z,93.40
2018-02-12T20:23:49.312Z,93.20
2018-02-12T20:26:16.499Z,93.00
2018-02-12T20:28:43.627Z,93.00
2018-02-12T20:31:10.019Z,92.90
2018-02-12T20:33:37.159Z,93.10
2018-02-12T20:36:03.702Z,93.10
2018-02-12T20:38:30.218Z,93.30
2018-02-12T20:40:56.660Z,93.30
2018-02-12T20:43:23.923Z,93.00
2018-02-12T20:45:51.277Z,93.00
2018-02-12T20:48:17.817Z,92.90
2018-02-12T20:50:44.355Z,92.90
2018-02-12T20:53:10.973Z,92.90
2018-02-12T20:55:37.370Z,92.70
2018-02-12T20:58:03.874Z,92.90
2018-02-12T21:00:30.305Z,93.00
2018-02-12T21:02:56.737Z,93.10
2018-02-12T21:05:23.170Z,93.10
2018-02-12T21:07:50.349Z,92.80
2018-02-12T21:10:17.604Z,92.70
2018-02-12T21:12:44.787Z,92.60
2018-02-12T21:15:12.010Z,92.40
2018-02-12T21:17:38.416Z,92.40
2018-02-12T21:20:05.650Z,92.40
2018-02-12T21:22:32.054Z,92.40
2018-02-12T21:24:58.516Z,92.40
2018-02-12T21:27:25.003Z,92.40
2018-02-12T21:29:52.337Z,92.50
2018-02-12T21:32:19.562Z,92.50
2018-02-12T21:34:46.047Z,92.50
2018-02-12T21:37:12.484Z,92.40
2018-02-12T21:39:38.992Z,92.50
2018-02-12T21:42:05.400Z,92.30
2018-02-12T21:44:31.798Z,92.20
2018-02-12T21:46:58.201Z,92.10
2018-02-12T21:49:24.589Z,92.00
2018-02-12T21:51:51.769Z,92.20
2018-02-12T21:54:18.929Z,92.10
2018-02-12T21:56:46.091Z,92.10
2018-02-12T21:59:12.496Z,92.10
2018-02-12T22:01:38.934Z,92.20
2018-02-12T22:04:05.384Z,92.20
2018-02-12T22:06:32.792Z,92.20
2018-02-12T22:08:59.252Z,92.20
2018-02-12T22:11:25.717Z,92.10
2018-02-12T22:13:52.129Z,92.10
2018-02-12T22:16:19.491Z,92.00
2018-02-12T22:18:46.709Z,92.10
2018-02-12T22:21:13.221Z,92.10
2018-02-12T22:23:40.370Z,92.20
2018-02-12T22:26:06.770Z,92.10
2018-02-12T22:28:33.218Z,92.10
2018-02-12T22:31:00.373Z,92.30
2018-02-12T22:33:27.509Z,92.40
2018-02-12T22:35:53.905Z,92.30
2018-02-12T22:38:21.051Z,92.30
2018-02-12T22:40:47.463Z,92.30
2018-02-12T22:43:14.211Z,91.90
2018-02-12T22:45:40.628Z,91.70
2018-02-12T22:48:07.079Z,91.70
2018-02-12T22:50:33.477Z,91.50
2018-02-12T22:52:59.961Z,91.40
2018-02-12T22:55:26.357Z,91.30
2018-02-12T22:57:52.823Z,91.30
2018-02-12T23:00:19.252Z,91.30
2018-02-12T23:02:46.408Z,90.90
2018-02-12T23:05:12.827Z,91.30
2018-02-12T23:07:40.053Z,91.10
2018-02-12T23:10:06.462Z,91.10
2018-02-12T23:12:32.858Z,91.00
2018-02-12T23:14:59.309Z,91.30
2018-02-12T23:17:26.444Z,91.40
2018-02-12T23:19:52.853Z,91.40
2018-02-12T23:22:19.265Z,91.40
2018-02-12T23:24:45.677Z,91.60
2018-02-12T23:27:12.120Z,91.50
2018-02-12T23:29:38.548Z,91.60
2018-02-12T23:32:05.016Z,91.70
2018-02-12T23:34:32.194Z,91.70
2018-02-12T23:36:58.605Z,91.70
2018-02-12T23:39:25.053Z,91.70
2018-02-12T23:41:52.341Z,91.70
2018-02-12T23:44:18.797Z,91.70
2018-02-12T23:46:45.239Z,91.80
2018-02-12T23:49:12.417Z,91.90
2018-02-12T23:51:38.853Z,92.20
2018-02-12T23:54:06.073Z,91.70
2018-02-12T23:56:32.497Z,91.70
2018-02-12T23:58:58.956Z,91.80
